Hlavní strana
METAR-TAF:

METAR-TAF

Letiště :

Wilkes County Airport

North Wilkesboro, Severní Karolína, Spojené státy americké

zeměpisná šířka: 36-13N, zeměpisná délka: 081-05W, výška: 396 m

Aktuální stav počasí

Zpráva byla vytvořena před 18 minutami, v 08:35 UTC
Bezvětří
Teplota 16°C
Vlhkost vzduchu 100%
Tlak 1018 hPa
Viditelnost: 8.0 km
Jasno
kouřmo

METAR: KUKF 280835Z AUTO 00000KT 5SM BR CLR 16/16 A3007 RMK AO2

Čas: 04:53 (08:53 UTC)


TAF: chybějící

Stav a předpovědi počasí z více než 4 000 letišť (zprávy METAR a TAF).

Červené a žluté tečky na mapě představují dostupné meteorologické stanice.

Když kurzor umístíte na tečku, zobrazí se název stanice.

Pak kliknutím zobrazíte stav a předpověď počasí.

Chcete-li změnit mapu, kliknutím na zelené tlačítko se znaménkem +mapu přiblížíte, kliknutím na zelené tlačítko se znaménkem – mapu oddálíte a kliknutím na zelené šipky přejdete na sousední mapy.


METAR-TAF: